sensor_id;sensor_type;location;lat;lon;timestamp;temperature;humidity
75387;DHT22;63966;47.914;22.266;2023-03-23T00:00:55;4.11;78.59
75387;DHT22;63966;47.914;22.266;2023-03-23T00:03:59;4.08;78.74
75387;DHT22;63966;47.914;22.266;2023-03-23T00:07:01;4.07;78.87
75387;DHT22;63966;47.914;22.266;2023-03-23T00:10:05;4.03;78.70
75387;DHT22;63966;47.914;22.266;2023-03-23T00:13:08;4.01;78.78
75387;DHT22;63966;47.914;22.266;2023-03-23T00:16:14;3.97;78.65
75387;DHT22;63966;47.914;22.266;2023-03-23T00:19:19;3.86;77.54
75387;DHT22;63966;47.914;22.266;2023-03-23T00:22:21;3.72;77.41
75387;DHT22;63966;47.914;22.266;2023-03-23T00:25:27;3.58;78.28
75387;DHT22;63966;47.914;22.266;2023-03-23T00:28:29;3.38;78.05
75387;DHT22;63966;47.914;22.266;2023-03-23T00:31:31;3.22;78.77
75387;DHT22;63966;47.914;22.266;2023-03-23T00:34:34;3.27;79.80
75387;DHT22;63966;47.914;22.266;2023-03-23T00:37:37;3.38;79.98
75387;DHT22;63966;47.914;22.266;2023-03-23T00:40:39;3.52;79.48
75387;DHT22;63966;47.914;22.266;2023-03-23T00:43:42;3.56;79.10
75387;DHT22;63966;47.914;22.266;2023-03-23T00:46:45;3.65;78.85
75387;DHT22;63966;47.914;22.266;2023-03-23T00:49:48;3.73;79.00
75387;DHT22;63966;47.914;22.266;2023-03-23T00:52:52;3.70;78.77
75387;DHT22;63966;47.914;22.266;2023-03-23T00:55:56;3.76;78.96
75387;DHT22;63966;47.914;22.266;2023-03-23T00:58:59;3.76;78.80
75387;DHT22;63966;47.914;22.266;2023-03-23T01:02:02;3.69;78.41
75387;DHT22;63966;47.914;22.266;2023-03-23T01:05:05;3.58;78.47
75387;DHT22;63966;47.914;22.266;2023-03-23T01:08:07;3.54;78.45
75387;DHT22;63966;47.914;22.266;2023-03-23T01:11:12;3.42;78.49
75387;DHT22;63966;47.914;22.266;2023-03-23T01:14:16;3.31;78.79
75387;DHT22;63966;47.914;22.266;2023-03-23T01:17:18;3.32;79.85
75387;DHT22;63966;47.914;22.266;2023-03-23T01:20:22;3.29;79.47
75387;DHT22;63966;47.914;22.266;2023-03-23T01:23:25;3.32;79.63
75387;DHT22;63966;47.914;22.266;2023-03-23T01:26:28;3.32;79.85
75387;DHT22;63966;47.914;22.266;2023-03-23T01:29:30;3.34;79.66
75387;DHT22;63966;47.914;22.266;2023-03-23T01:32:33;3.34;79.73
75387;DHT22;63966;47.914;22.266;2023-03-23T01:35:37;3.29;79.78
75387;DHT22;63966;47.914;22.266;2023-03-23T01:38:42;3.32;79.87
75387;DHT22;63966;47.914;22.266;2023-03-23T01:41:45;3.32;80.28
75387;DHT22;63966;47.914;22.266;2023-03-23T01:48:05;3.29;80.60
75387;DHT22;63966;47.914;22.266;2023-03-23T01:51:17;3.31;80.72
75387;DHT22;63966;47.914;22.266;2023-03-23T01:54:23;3.28;80.65
75387;DHT22;63966;47.914;22.266;2023-03-23T01:57:26;3.27;80.82
75387;DHT22;63966;47.914;22.266;2023-03-23T02:00:32;3.22;80.61
75387;DHT22;63966;47.914;22.266;2023-03-23T02:03:37;3.21;80.51
75387;DHT22;63966;47.914;22.266;2023-03-23T02:06:41;3.15;80.60
75387;DHT22;63966;47.914;22.266;2023-03-23T02:09:51;3.11;80.97
75387;DHT22;63966;47.914;22.266;2023-03-23T02:12:53;3.15;81.12
75387;DHT22;63966;47.914;22.266;2023-03-23T02:36:40;2.62;79.74
75387;DHT22;63966;47.914;22.266;2023-03-23T02:39:55;2.38;81.32
75387;DHT22;63966;47.914;22.266;2023-03-23T02:42:59;2.38;82.16
75387;DHT22;63966;47.914;22.266;2023-03-23T02:46:05;2.60;82.20
75387;DHT22;63966;47.914;22.266;2023-03-23T02:49:11;2.91;81.98
75387;DHT22;63966;47.914;22.266;2023-03-23T02:52:21;3.18;80.93
75387;DHT22;63966;47.914;22.266;2023-03-23T02:55:27;3.35;80.61
75387;DHT22;63966;47.914;22.266;2023-03-23T02:58:30;3.48;79.92
75387;DHT22;63966;47.914;22.266;2023-03-23T03:04:40;3.55;79.79
75387;DHT22;63966;47.914;22.266;2023-03-23T03:11:08;3.80;78.78
75387;DHT22;63966;47.914;22.266;2023-03-23T03:14:23;3.87;79.31
75387;DHT22;63966;47.914;22.266;2023-03-23T03:17:32;4.14;78.25
75387;DHT22;63966;47.914;22.266;2023-03-23T03:20:43;4.28;78.02
75387;DHT22;63966;47.914;22.266;2023-03-23T03:23:47;4.35;78.65
75387;DHT22;63966;47.914;22.266;2023-03-23T03:26:53;4.30;78.36
75387;DHT22;63966;47.914;22.266;2023-03-23T03:30:10;4.08;78.78
75387;DHT22;63966;47.914;22.266;2023-03-23T03:33:16;4.11;79.02
75387;DHT22;63966;47.914;22.266;2023-03-23T03:36:26;4.24;78.73
75387;DHT22;63966;47.914;22.266;2023-03-23T03:39:29;4.45;78.30
75387;DHT22;63966;47.914;22.266;2023-03-23T03:42:31;4.56;77.98
75387;DHT22;63966;47.914;22.266;2023-03-23T03:45:33;4.59;78.20
75387;DHT22;63966;47.914;22.266;2023-03-23T03:48:36;4.66;78.04
75387;DHT22;63966;47.914;22.266;2023-03-23T03:51:39;4.59;78.66
75387;DHT22;63966;47.914;22.266;2023-03-23T03:54:46;4.61;78.77
75387;DHT22;63966;47.914;22.266;2023-03-23T03:57:49;4.62;78.21
75387;DHT22;63966;47.914;22.266;2023-03-23T04:01:19;4.61;78.46
75387;DHT22;63966;47.914;22.266;2023-03-23T04:04:25;4.62;78.76
75387;DHT22;63966;47.914;22.266;2023-03-23T04:07:27;4.73;78.38
75387;DHT22;63966;47.914;22.266;2023-03-23T04:10:32;4.82;78.80
75387;DHT22;63966;47.914;22.266;2023-03-23T04:13:37;4.89;78.46
75387;DHT22;63966;47.914;22.266;2023-03-23T04:16:39;4.96;78.26
75387;DHT22;63966;47.914;22.266;2023-03-23T04:19:43;5.04;78.00
75387;DHT22;63966;47.914;22.266;2023-03-23T04:22:48;5.03;77.86
75387;DHT22;63966;47.914;22.266;2023-03-23T04:25:55;5.03;77.53
75387;DHT22;63966;47.914;22.266;2023-03-23T04:29:03;5.12;77.65
75387;DHT22;63966;47.914;22.266;2023-03-23T04:32:10;5.09;78.26
75387;DHT22;63966;47.914;22.266;2023-03-23T04:35:19;4.92;77.99
75387;DHT22;63966;47.914;22.266;2023-03-23T04:38:29;4.87;77.95
75387;DHT22;63966;47.914;22.266;2023-03-23T04:41:41;4.90;77.66
75387;DHT22;63966;47.914;22.266;2023-03-23T04:44:52;4.86;77.97
75387;DHT22;63966;47.914;22.266;2023-03-23T04:48:00;4.97;77.77
75387;DHT22;63966;47.914;22.266;2023-03-23T04:51:15;4.99;77.14
75387;DHT22;63966;47.914;22.266;2023-03-23T04:54:20;4.86;77.68
75387;DHT22;63966;47.914;22.266;2023-03-23T04:57:26;4.75;78.17
75387;DHT22;63966;47.914;22.266;2023-03-23T05:00:52;4.73;78.50
75387;DHT22;63966;47.914;22.266;2023-03-23T05:03:57;4.75;79.64
75387;DHT22;63966;47.914;22.266;2023-03-23T05:06:59;4.82;79.63
75387;DHT22;63966;47.914;22.266;2023-03-23T05:10:07;4.87;79.34
75387;DHT22;63966;47.914;22.266;2023-03-23T05:13:10;4.93;79.17
75387;DHT22;63966;47.914;22.266;2023-03-23T05:16:12;4.94;79.07
75387;DHT22;63966;47.914;22.266;2023-03-23T05:19:16;5.10;78.75
75387;DHT22;63966;47.914;22.266;2023-03-23T05:22:20;5.24;78.08
75387;DHT22;63966;47.914;22.266;2023-03-23T05:25:25;5.20;77.61
75387;DHT22;63966;47.914;22.266;2023-03-23T05:28:39;5.24;77.44
75387;DHT22;63966;47.914;22.266;2023-03-23T05:31:53;5.31;77.03
75387;DHT22;63966;47.914;22.266;2023-03-23T05:35:00;5.44;76.28
75387;DHT22;63966;47.914;22.266;2023-03-23T05:38:03;5.56;75.61
75387;DHT22;63966;47.914;22.266;2023-03-23T05:41:07;5.72;76.02
75387;DHT22;63966;47.914;22.266;2023-03-23T05:44:14;5.85;75.59
75387;DHT22;63966;47.914;22.266;2023-03-23T05:47:28;5.86;76.24
75387;DHT22;63966;47.914;22.266;2023-03-23T05:50:36;6.02;76.66
75387;DHT22;63966;47.914;22.266;2023-03-23T05:53:39;6.16;76.55
75387;DHT22;63966;47.914;22.266;2023-03-23T05:56:44;6.48;75.42
75387;DHT22;63966;47.914;22.266;2023-03-23T06:00:07;6.79;75.49
75387;DHT22;63966;47.914;22.266;2023-03-23T06:03:14;6.91;74.72
75387;DHT22;63966;47.914;22.266;2023-03-23T06:06:28;7.09;74.51
75387;DHT22;63966;47.914;22.266;2023-03-23T06:09:42;7.30;74.71
75387;DHT22;63966;47.914;22.266;2023-03-23T06:13:13;7.48;74.48
75387;DHT22;63966;47.914;22.266;2023-03-23T06:16:39;7.82;73.17
75387;DHT22;63966;47.914;22.266;2023-03-23T06:19:44;8.13;72.45
75387;DHT22;63966;47.914;22.266;2023-03-23T06:22:52;8.43;72.40
75387;DHT22;63966;47.914;22.266;2023-03-23T06:26:08;8.61;70.90
75387;DHT22;63966;47.914;22.266;2023-03-23T06:29:15;8.67;72.62
75387;DHT22;63966;47.914;22.266;2023-03-23T06:32:27;8.71;71.13
75387;DHT22;63966;47.914;22.266;2023-03-23T06:35:33;8.77;70.57
75387;DHT22;63966;47.914;22.266;2023-03-23T06:38:48;9.12;69.32
75387;DHT22;63966;47.914;22.266;2023-03-23T06:41:57;9.22;70.49
75387;DHT22;63966;47.914;22.266;2023-03-23T06:45:04;9.39;69.12
75387;DHT22;63966;47.914;22.266;2023-03-23T06:48:14;9.73;68.54
75387;DHT22;63966;47.914;22.266;2023-03-23T06:51:17;9.90;68.33
75387;DHT22;63966;47.914;22.266;2023-03-23T06:54:24;10.09;67.55
75387;DHT22;63966;47.914;22.266;2023-03-23T06:57:27;10.28;67.29
75387;DHT22;63966;47.914;22.266;2023-03-23T07:00:31;10.57;65.27
75387;DHT22;63966;47.914;22.266;2023-03-23T07:03:35;10.63;65.43
75387;DHT22;63966;47.914;22.266;2023-03-23T07:06:39;11.07;64.66
75387;DHT22;63966;47.914;22.266;2023-03-23T07:09:44;11.82;62.46
75387;DHT22;63966;47.914;22.266;2023-03-23T07:12:47;11.96;61.18
75387;DHT22;63966;47.914;22.266;2023-03-23T07:15:50;11.97;61.59
75387;DHT22;63966;47.914;22.266;2023-03-23T07:18:53;12.23;61.82
75387;DHT22;63966;47.914;22.266;2023-03-23T07:21:56;12.91;60.91
75387;DHT22;63966;47.914;22.266;2023-03-23T07:24:59;13.16;60.19
75387;DHT22;63966;47.914;22.266;2023-03-23T07:28:07;13.57;57.82
75387;DHT22;63966;47.914;22.266;2023-03-23T07:31:10;13.81;56.77
75387;DHT22;63966;47.914;22.266;2023-03-23T07:34:12;14.26;56.59
75387;DHT22;63966;47.914;22.266;2023-03-23T07:37:29;16.48;48.91
75387;DHT22;63966;47.914;22.266;2023-03-23T07:40:33;18.55;44.48
75387;DHT22;63966;47.914;22.266;2023-03-23T07:43:42;21.53;40.07
75387;DHT22;63966;47.914;22.266;2023-03-23T07:47:05;22.75;37.14
75387;DHT22;63966;47.914;22.266;2023-03-23T07:50:09;22.03;36.44
75387;DHT22;63966;47.914;22.266;2023-03-23T07:53:15;21.28;37.09
75387;DHT22;63966;47.914;22.266;2023-03-23T07:56:21;20.13;39.08
75387;DHT22;63966;47.914;22.266;2023-03-23T07:59:44;22.25;37.11
75387;DHT22;63966;47.914;22.266;2023-03-23T08:02:50;22.90;35.05
75387;DHT22;63966;47.914;22.266;2023-03-23T08:06:16;24.17;32.10
75387;DHT22;63966;47.914;22.266;2023-03-23T08:09:20;24.19;32.91
75387;DHT22;63966;47.914;22.266;2023-03-23T08:12:40;24.94;30.87
75387;DHT22;63966;47.914;22.266;2023-03-23T08:15:46;24.54;31.62
75387;DHT22;63966;47.914;22.266;2023-03-23T08:19:17;25.54;30.70
75387;DHT22;63966;47.914;22.266;2023-03-23T08:22:53;25.35;30.14
75387;DHT22;63966;47.914;22.266;2023-03-23T08:26:15;25.04;30.62
75387;DHT22;63966;47.914;22.266;2023-03-23T08:29:34;24.47;33.23
75387;DHT22;63966;47.914;22.266;2023-03-23T08:32:43;22.65;33.97
75387;DHT22;63966;47.914;22.266;2023-03-23T08:35:59;21.87;36.34
75387;DHT22;63966;47.914;22.266;2023-03-23T08:39:29;20.98;38.31
75387;DHT22;63966;47.914;22.266;2023-03-23T08:43:00;20.26;38.33
75387;DHT22;63966;47.914;22.266;2023-03-23T08:46:11;19.98;38.34
75387;DHT22;63966;47.914;22.266;2023-03-23T08:49:34;19.57;40.18
75387;DHT22;63966;47.914;22.266;2023-03-23T08:53:03;19.70;40.32
75387;DHT22;63966;47.914;22.266;2023-03-23T08:56:34;19.43;41.50
75387;DHT22;63966;47.914;22.266;2023-03-23T08:59:43;19.43;40.58
75387;DHT22;63966;47.914;22.266;2023-03-23T09:02:54;19.05;41.58
75387;DHT22;63966;47.914;22.266;2023-03-23T09:06:05;19.24;40.00
75387;DHT22;63966;47.914;22.266;2023-03-23T09:09:23;19.37;41.33
75387;DHT22;63966;47.914;22.266;2023-03-23T09:12:26;19.64;40.55
75387;DHT22;63966;47.914;22.266;2023-03-23T09:15:28;19.53;41.05
75387;DHT22;63966;47.914;22.266;2023-03-23T09:18:31;19.60;39.93
75387;DHT22;63966;47.914;22.266;2023-03-23T09:21:36;19.74;39.43
75387;DHT22;63966;47.914;22.266;2023-03-23T09:24:41;19.89;39.48
75387;DHT22;63966;47.914;22.266;2023-03-23T09:27:43;20.02;40.23
75387;DHT22;63966;47.914;22.266;2023-03-23T09:30:48;19.93;39.42
75387;DHT22;63966;47.914;22.266;2023-03-23T09:33:51;19.93;40.20
75387;DHT22;63966;47.914;22.266;2023-03-23T09:36:54;20.25;40.29
75387;DHT22;63966;47.914;22.266;2023-03-23T09:39:56;20.23;38.26
75387;DHT22;63966;47.914;22.266;2023-03-23T09:43:09;20.30;39.92
75387;DHT22;63966;47.914;22.266;2023-03-23T09:50:19;20.60;37.96
75387;DHT22;63966;47.914;22.266;2023-03-23T09:56:57;19.92;38.54
75387;DHT22;63966;47.914;22.266;2023-03-23T10:00:14;19.61;40.71
75387;DHT22;63966;47.914;22.266;2023-03-23T10:03:25;19.24;42.20
75387;DHT22;63966;47.914;22.266;2023-03-23T10:06:28;19.22;41.09
75387;DHT22;63966;47.914;22.266;2023-03-23T10:09:31;19.09;41.83
75387;DHT22;63966;47.914;22.266;2023-03-23T10:12:54;19.40;40.49
75387;DHT22;63966;47.914;22.266;2023-03-23T10:15:58;19.50;40.47
75387;DHT22;63966;47.914;22.266;2023-03-23T10:22:42;19.24;39.97
75387;DHT22;63966;47.914;22.266;2023-03-23T10:26:17;19.50;40.28
75387;DHT22;63966;47.914;22.266;2023-03-23T10:29:31;19.71;41.13
75387;DHT22;63966;47.914;22.266;2023-03-23T10:36:02;19.81;38.45
75387;DHT22;63966;47.914;22.266;2023-03-23T10:39:20;19.74;39.24
75387;DHT22;63966;47.914;22.266;2023-03-23T10:42:35;19.51;38.40
75387;DHT22;63966;47.914;22.266;2023-03-23T10:45:39;19.36;40.12
75387;DHT22;63966;47.914;22.266;2023-03-23T10:48:44;19.19;40.02
75387;DHT22;63966;47.914;22.266;2023-03-23T10:51:59;19.30;39.50
75387;DHT22;63966;47.914;22.266;2023-03-23T10:55:06;19.61;39.57
75387;DHT22;63966;47.914;22.266;2023-03-23T10:58:29;20.01;39.49
75387;DHT22;63966;47.914;22.266;2023-03-23T11:01:33;20.25;39.35
75387;DHT22;63966;47.914;22.266;2023-03-23T11:04:37;20.22;39.09
75387;DHT22;63966;47.914;22.266;2023-03-23T11:07:40;20.43;38.45
75387;DHT22;63966;47.914;22.266;2023-03-23T11:14:48;19.91;40.02
75387;DHT22;63966;47.914;22.266;2023-03-23T11:17:26;19.88;40.51
75387;DHT22;63966;47.914;22.266;2023-03-23T11:20:33;20.02;39.09
75387;DHT22;63966;47.914;22.266;2023-03-23T11:23:41;20.06;38.98
75387;DHT22;63966;47.914;22.266;2023-03-23T11:26:45;20.05;40.01
75387;DHT22;63966;47.914;22.266;2023-03-23T11:29:54;20.46;39.56
75387;DHT22;63966;47.914;22.266;2023-03-23T11:33:00;20.59;40.17
75387;DHT22;63966;47.914;22.266;2023-03-23T11:36:04;20.64;36.89
75387;DHT22;63966;47.914;22.266;2023-03-23T11:39:24;20.43;38.21
75387;DHT22;63966;47.914;22.266;2023-03-23T11:42:45;20.26;40.50
75387;DHT22;63966;47.914;22.266;2023-03-23T11:45:56;20.18;40.08
75387;DHT22;63966;47.914;22.266;2023-03-23T11:49:09;20.13;39.36
75387;DHT22;63966;47.914;22.266;2023-03-23T11:58:46;20.32;41.54
75387;DHT22;63966;47.914;22.266;2023-03-23T12:02:01;20.23;40.93
75387;DHT22;63966;47.914;22.266;2023-03-23T12:22:08;20.26;37.79
75387;DHT22;63966;47.914;22.266;2023-03-23T12:25:30;20.15;40.50
75387;DHT22;63966;47.914;22.266;2023-03-23T12:29:06;20.29;41.59
75387;DHT22;63966;47.914;22.266;2023-03-23T12:36:03;20.29;40.31
75387;DHT22;63966;47.914;22.266;2023-03-23T12:52:26;19.84;41.19
75387;DHT22;63966;47.914;22.266;2023-03-23T12:56:04;19.77;40.17
75387;DHT22;63966;47.914;22.266;2023-03-23T13:02:30;19.74;40.52
75387;DHT22;63966;47.914;22.266;2023-03-23T13:05:41;19.70;39.18
75387;DHT22;63966;47.914;22.266;2023-03-23T13:08:58;19.77;42.38
75387;DHT22;63966;47.914;22.266;2023-03-23T13:12:04;19.75;39.91
75387;DHT22;63966;47.914;22.266;2023-03-23T13:29:00;19.53;42.32
75387;DHT22;63966;47.914;22.266;2023-03-23T13:32:15;19.77;41.20
75387;DHT22;63966;47.914;22.266;2023-03-23T13:35:19;19.88;38.65
75387;DHT22;63966;47.914;22.266;2023-03-23T13:38:27;19.77;41.42
75387;DHT22;63966;47.914;22.266;2023-03-23T13:41:31;19.55;39.71
75387;DHT22;63966;47.914;22.266;2023-03-23T13:45:04;19.34;42.77
75387;DHT22;63966;47.914;22.266;2023-03-23T13:51:46;19.23;42.38
75387;DHT22;63966;47.914;22.266;2023-03-23T13:54:51;19.43;41.06
75387;DHT22;63966;47.914;22.266;2023-03-23T14:01:13;19.51;40.96
75387;DHT22;63966;47.914;22.266;2023-03-23T14:04:19;19.30;41.83
75387;DHT22;63966;47.914;22.266;2023-03-23T14:07:22;19.19;41.63
75387;DHT22;63966;47.914;22.266;2023-03-23T14:10:43;19.02;41.76
75387;DHT22;63966;47.914;22.266;2023-03-23T14:14:04;18.88;41.99
75387;DHT22;63966;47.914;22.266;2023-03-23T14:17:28;18.75;41.46
75387;DHT22;63966;47.914;22.266;2023-03-23T14:20:36;18.64;43.04
75387;DHT22;63966;47.914;22.266;2023-03-23T14:23:39;18.45;43.50
75387;DHT22;63966;47.914;22.266;2023-03-23T14:26:42;18.37;44.04
75387;DHT22;63966;47.914;22.266;2023-03-23T14:29:45;18.31;44.17
75387;DHT22;63966;47.914;22.266;2023-03-23T14:32:47;18.20;45.57
75387;DHT22;63966;47.914;22.266;2023-03-23T14:35:51;18.07;45.42
75387;DHT22;63966;47.914;22.266;2023-03-23T14:42:30;17.96;46.55
75387;DHT22;63966;47.914;22.266;2023-03-23T14:45:33;17.87;46.70
75387;DHT22;63966;47.914;22.266;2023-03-23T14:48:36;17.82;46.64
75387;DHT22;63966;47.914;22.266;2023-03-23T14:51:51;17.79;48.58
75387;DHT22;63966;47.914;22.266;2023-03-23T14:54:53;17.75;47.75
75387;DHT22;63966;47.914;22.266;2023-03-23T14:58:04;17.78;45.67
75387;DHT22;63966;47.914;22.266;2023-03-23T15:01:11;17.80;45.90
75387;DHT22;63966;47.914;22.266;2023-03-23T15:04:23;17.75;45.34
75387;DHT22;63966;47.914;22.266;2023-03-23T15:07:35;17.85;45.74
75387;DHT22;63966;47.914;22.266;2023-03-23T15:10:39;17.80;46.12
75387;DHT22;63966;47.914;22.266;2023-03-23T15:13:49;17.85;47.19
75387;DHT22;63966;47.914;22.266;2023-03-23T15:16:54;17.90;46.77
75387;DHT22;63966;47.914;22.266;2023-03-23T15:20:09;18.10;47.57
75387;DHT22;63966;47.914;22.266;2023-03-23T15:23:16;18.09;46.30
75387;DHT22;63966;47.914;22.266;2023-03-23T15:26:29;18.11;46.33
75387;DHT22;63966;47.914;22.266;2023-03-23T15:29:32;18.01;45.35
75387;DHT22;63966;47.914;22.266;2023-03-23T15:32:42;17.94;47.07
75387;DHT22;63966;47.914;22.266;2023-03-23T15:35:48;18.04;46.61
75387;DHT22;63966;47.914;22.266;2023-03-23T15:38:51;17.83;46.70
75387;DHT22;63966;47.914;22.266;2023-03-23T15:41:54;17.71;47.38
75387;DHT22;63966;47.914;22.266;2023-03-23T15:48:14;17.53;47.54
75387;DHT22;63966;47.914;22.266;2023-03-23T15:51:20;17.46;48.16
75387;DHT22;63966;47.914;22.266;2023-03-23T15:54:23;17.39;47.57
75387;DHT22;63966;47.914;22.266;2023-03-23T15:57:25;17.34;49.11
75387;DHT22;63966;47.914;22.266;2023-03-23T16:00:28;17.28;47.25
75387;DHT22;63966;47.914;22.266;2023-03-23T16:03:55;17.18;48.12
75387;DHT22;63966;47.914;22.266;2023-03-23T16:07:00;17.15;48.07
75387;DHT22;63966;47.914;22.266;2023-03-23T16:10:05;17.06;49.10
75387;DHT22;63966;47.914;22.266;2023-03-23T16:13:08;16.94;49.29
75387;DHT22;63966;47.914;22.266;2023-03-23T16:16:22;16.79;48.87
75387;DHT22;63966;47.914;22.266;2023-03-23T16:19:25;16.70;49.89
75387;DHT22;63966;47.914;22.266;2023-03-23T16:22:29;16.48;50.54
75387;DHT22;63966;47.914;22.266;2023-03-23T16:25:33;16.32;50.79
75387;DHT22;63966;47.914;22.266;2023-03-23T16:28:36;16.14;51.14
75387;DHT22;63966;47.914;22.266;2023-03-23T16:31:40;15.91;51.38
75387;DHT22;63966;47.914;22.266;2023-03-23T16:34:43;15.71;51.72
75387;DHT22;63966;47.914;22.266;2023-03-23T16:37:51;15.52;51.89
75387;DHT22;63966;47.914;22.266;2023-03-23T16:41:09;15.35;52.95
75387;DHT22;63966;47.914;22.266;2023-03-23T16:44:13;15.25;53.15
75387;DHT22;63966;47.914;22.266;2023-03-23T16:47:17;15.15;53.68
75387;DHT22;63966;47.914;22.266;2023-03-23T16:50:30;15.12;53.30
75387;DHT22;63966;47.914;22.266;2023-03-23T16:53:33;15.01;53.81
75387;DHT22;63966;47.914;22.266;2023-03-23T16:56:38;14.88;54.22
75387;DHT22;63966;47.914;22.266;2023-03-23T16:59:41;14.75;53.94
75387;DHT22;63966;47.914;22.266;2023-03-23T17:02:46;14.67;54.08
75387;DHT22;63966;47.914;22.266;2023-03-23T17:05:51;14.61;53.98
75387;DHT22;63966;47.914;22.266;2023-03-23T17:08:54;14.60;53.77
75387;DHT22;63966;47.914;22.266;2023-03-23T17:11:58;14.59;53.89
75387;DHT22;63966;47.914;22.266;2023-03-23T17:15:02;14.56;53.98
75387;DHT22;63966;47.914;22.266;2023-03-23T17:18:06;14.47;54.35
75387;DHT22;63966;47.914;22.266;2023-03-23T17:21:10;14.36;54.78
75387;DHT22;63966;47.914;22.266;2023-03-23T17:24:13;14.32;55.03
75387;DHT22;63966;47.914;22.266;2023-03-23T17:27:18;14.27;55.29
75387;DHT22;63966;47.914;22.266;2023-03-23T17:30:22;14.22;55.52
75387;DHT22;63966;47.914;22.266;2023-03-23T17:33:25;14.10;55.67
75387;DHT22;63966;47.914;22.266;2023-03-23T17:36:29;13.92;56.12
75387;DHT22;63966;47.914;22.266;2023-03-23T17:39:34;13.75;56.35
75387;DHT22;63966;47.914;22.266;2023-03-23T17:42:45;13.60;56.93
75387;DHT22;63966;47.914;22.266;2023-03-23T17:45:49;13.48;57.14
75387;DHT22;63966;47.914;22.266;2023-03-23T17:48:53;13.39;57.61
75387;DHT22;63966;47.914;22.266;2023-03-23T17:51:57;13.24;58.25
75387;DHT22;63966;47.914;22.266;2023-03-23T17:55:01;13.04;59.08
75387;DHT22;63966;47.914;22.266;2023-03-23T17:58:05;12.97;58.92
75387;DHT22;63966;47.914;22.266;2023-03-23T18:01:09;12.92;59.00
75387;DHT22;63966;47.914;22.266;2023-03-23T18:04:13;12.91;58.84
75387;DHT22;63966;47.914;22.266;2023-03-23T18:07:17;12.83;58.92
75387;DHT22;63966;47.914;22.266;2023-03-23T18:10:25;12.71;59.66
75387;DHT22;63966;47.914;22.266;2023-03-23T18:13:31;12.58;60.41
75387;DHT22;63966;47.914;22.266;2023-03-23T18:16:35;12.54;60.23
75387;DHT22;63966;47.914;22.266;2023-03-23T18:19:39;12.76;59.42
75387;DHT22;63966;47.914;22.266;2023-03-23T18:22:44;12.88;59.20
75387;DHT22;63966;47.914;22.266;2023-03-23T18:25:50;12.97;59.56
75387;DHT22;63966;47.914;22.266;2023-03-23T18:28:56;12.64;60.85
75387;DHT22;63966;47.914;22.266;2023-03-23T18:32:00;12.33;61.44
75387;DHT22;63966;47.914;22.266;2023-03-23T18:35:05;11.94;62.73
75387;DHT22;63966;47.914;22.266;2023-03-23T18:38:09;11.83;62.89
75387;DHT22;63966;47.914;22.266;2023-03-23T18:41:14;11.66;63.16
75387;DHT22;63966;47.914;22.266;2023-03-23T18:44:18;11.54;63.51
75387;DHT22;63966;47.914;22.266;2023-03-23T18:47:21;11.49;63.79
75387;DHT22;63966;47.914;22.266;2023-03-23T18:50:25;11.52;63.76
75387;DHT22;63966;47.914;22.266;2023-03-23T18:53:30;11.72;63.38
75387;DHT22;63966;47.914;22.266;2023-03-23T18:56:34;11.87;62.86
75387;DHT22;63966;47.914;22.266;2023-03-23T18:59:37;11.96;62.40
75387;DHT22;63966;47.914;22.266;2023-03-23T19:02:41;11.94;62.23
75387;DHT22;63966;47.914;22.266;2023-03-23T19:05:45;12.03;62.16
75387;DHT22;63966;47.914;22.266;2023-03-23T19:08:50;11.98;62.31
75387;DHT22;63966;47.914;22.266;2023-03-23T19:11:55;11.89;62.60
75387;DHT22;63966;47.914;22.266;2023-03-23T19:14:58;11.72;63.29
75387;DHT22;63966;47.914;22.266;2023-03-23T19:18:02;11.59;63.61
75387;DHT22;63966;47.914;22.266;2023-03-23T19:21:06;11.48;63.90
75387;DHT22;63966;47.914;22.266;2023-03-23T19:24:19;11.36;64.41
75387;DHT22;63966;47.914;22.266;2023-03-23T19:27:23;11.12;64.97
75387;DHT22;63966;47.914;22.266;2023-03-23T19:30:28;10.96;65.28
75387;DHT22;63966;47.914;22.266;2023-03-23T19:33:32;10.80;65.55
75387;DHT22;63966;47.914;22.266;2023-03-23T19:36:36;10.63;65.96
75387;DHT22;63966;47.914;22.266;2023-03-23T19:39:40;10.45;66.68
75387;DHT22;63966;47.914;22.266;2023-03-23T19:42:45;10.46;67.72
75387;DHT22;63966;47.914;22.266;2023-03-23T19:45:49;10.48;68.16
75387;DHT22;63966;47.914;22.266;2023-03-23T19:48:54;10.55;68.23
75387;DHT22;63966;47.914;22.266;2023-03-23T19:51:58;10.57;68.23
75387;DHT22;63966;47.914;22.266;2023-03-23T19:55:13;10.64;68.27
75387;DHT22;63966;47.914;22.266;2023-03-23T19:58:18;10.67;68.11
75387;DHT22;63966;47.914;22.266;2023-03-23T20:01:22;10.66;67.85
75387;DHT22;63966;47.914;22.266;2023-03-23T20:04:26;10.67;67.76
75387;DHT22;63966;47.914;22.266;2023-03-23T20:07:30;10.62;67.91
75387;DHT22;63966;47.914;22.266;2023-03-23T20:10:35;10.49;67.71
75387;DHT22;63966;47.914;22.266;2023-03-23T20:13:40;10.35;67.64
75387;DHT22;63966;47.914;22.266;2023-03-23T20:16:44;10.26;67.83
75387;DHT22;63966;47.914;22.266;2023-03-23T20:19:48;10.25;68.25
75387;DHT22;63966;47.914;22.266;2023-03-23T20:22:52;10.24;68.27
75387;DHT22;63966;47.914;22.266;2023-03-23T20:26:02;10.31;68.47
75387;DHT22;63966;47.914;22.266;2023-03-23T20:29:07;10.29;68.60
75387;DHT22;63966;47.914;22.266;2023-03-23T20:32:11;10.45;68.46
75387;DHT22;63966;47.914;22.266;2023-03-23T20:35:15;10.43;68.56
75387;DHT22;63966;47.914;22.266;2023-03-23T20:38:19;10.39;68.57
75387;DHT22;63966;47.914;22.266;2023-03-23T20:41:22;10.43;68.64
75387;DHT22;63966;47.914;22.266;2023-03-23T20:44:26;10.35;68.69
75387;DHT22;63966;47.914;22.266;2023-03-23T20:47:33;10.24;68.84
75387;DHT22;63966;47.914;22.266;2023-03-23T20:50:37;10.18;69.29
75387;DHT22;63966;47.914;22.266;2023-03-23T20:53:40;10.11;69.29
75387;DHT22;63966;47.914;22.266;2023-03-23T20:56:45;10.02;69.53
75387;DHT22;63966;47.914;22.266;2023-03-23T20:59:50;9.98;69.64
75387;DHT22;63966;47.914;22.266;2023-03-23T21:02:55;9.93;70.01
75387;DHT22;63966;47.914;22.266;2023-03-23T21:06:00;9.93;69.81
75387;DHT22;63966;47.914;22.266;2023-03-23T21:09:05;9.84;69.81
75387;DHT22;63966;47.914;22.266;2023-03-23T21:12:10;9.76;70.25
75387;DHT22;63966;47.914;22.266;2023-03-23T21:15:13;9.74;70.42
75387;DHT22;63966;47.914;22.266;2023-03-23T21:18:17;9.74;70.83
75387;DHT22;63966;47.914;22.266;2023-03-23T21:21:21;9.71;70.87
75387;DHT22;63966;47.914;22.266;2023-03-23T21:24:26;9.74;71.12
75387;DHT22;63966;47.914;22.266;2023-03-23T21:27:30;9.70;70.88
75387;DHT22;63966;47.914;22.266;2023-03-23T21:30:34;9.47;71.32
75387;DHT22;63966;47.914;22.266;2023-03-23T21:33:37;9.29;71.53